Time;durP1;ratioP1;P1;durP2;ratioP2;P2;SDS_P1;SDS_P2;PMS_P1;PMS_P2;Temp;Humidity;BMP_temperature;BMP_pressure;BME280_temperature;BME280_humidity;BME280_pressure;Samples;Min_cycle;Max_cycle;Signal;HPM_P1;HPM_P2
2023/08/15 00:01:45;;;;;;;14.90;9.20;;;;;;;25.48;51.50;100797.89;107857;1256;63647;-68
2023/08/15 00:04:11;;;;;;;16.30;9.40;;;;;;;25.37;51.67;100795.76;107887;1256;60320;-68
2023/08/15 00:06:38;;;;;;;12.90;7.40;;;;;;;25.40;51.69;100797.68;107921;1260;73813;-67
2023/08/15 00:09:05;;;;;;;13.60;9.20;;;;;;;25.35;51.68;100794.35;107912;1256;69140;-67
2023/08/15 00:11:31;;;;;;;14.90;9.40;;;;;;;25.18;52.10;100795.83;107932;1256;72806;-67
2023/08/15 00:13:58;;;;;;;15.50;8.70;;;;;;;25.19;52.25;100799.72;107725;1256;60336;-67
2023/08/15 00:16:24;;;;;;;14.00;10.20;;;;;;;25.14;52.43;100797.64;107746;1256;60376;-67
2023/08/15 00:18:51;;;;;;;12.20;8.60;;;;;;;25.18;52.29;100795.79;107919;1256;60441;-66
2023/08/15 00:21:18;;;;;;;13.00;9.20;;;;;;;25.26;52.13;100800.86;107899;1256;71325;-67
2023/08/15 00:23:44;;;;;;;14.80;9.80;;;;;;;25.27;52.22;100799.00;107892;1256;60357;-67
2023/08/15 00:26:11;;;;;;;14.60;9.40;;;;;;;25.28;52.16;100801.55;107889;1256;61796;-68
2023/08/15 00:28:38;;;;;;;14.70;9.70;;;;;;;25.22;52.16;100799.39;107943;1256;60514;-68
2023/08/15 00:31:04;;;;;;;13.60;8.10;;;;;;;25.10;52.47;100804.25;107690;1256;292083;-67
2023/08/15 00:34:43;;;;;;;11.30;8.30;;;;;;;23.29;57.74;100806.67;104908;1289;600423;-68
2023/08/15 00:37:10;;;;;;;14.00;9.60;;;;;;;24.17;55.35;100808.20;107332;1264;62330;-67
2023/08/15 00:39:37;;;;;;;14.50;9.90;;;;;;;24.31;54.98;100810.42;107300;1264;60094;-67
2023/08/15 00:42:09;;;;;;;13.40;8.80;;;;;;;24.34;54.94;100812.31;107263;1263;71406;-67
2023/08/15 00:44:40;;;;;;;13.20;9.00;;;;;;;24.53;54.32;100812.91;107307;1264;69583;-67
2023/08/15 00:47:09;;;;;;;11.30;8.00;;;;;;;24.45;54.37;100811.05;107218;1264;526562;-68
2023/08/15 00:49:36;;;;;;;12.80;8.20;;;;;;;24.58;54.12;100815.05;107368;1263;61615;-67
2023/08/15 00:52:03;;;;;;;15.00;9.80;;;;;;;24.50;54.28;100817.65;107422;1264;59603;-67
2023/08/15 00:54:32;;;;;;;12.10;7.90;;;;;;;24.44;54.47;100815.92;107312;1262;71044;-68
2023/08/15 00:57:00;;;;;;;14.60;9.60;;;;;;;24.45;54.32;100815.32;107242;1264;68201;-66
2023/08/15 00:59:27;;;;;;;14.10;10.20;;;;;;;24.37;54.51;100814.90;107359;1263;72641;-67
2023/08/15 01:01:55;;;;;;;11.50;8.60;;;;;;;24.38;54.52;100817.55;107308;1263;60550;-66
2023/08/15 01:04:23;;;;;;;19.30;10.20;;;;;;;24.41;54.69;100813.36;107416;1266;60130;-66
2023/08/15 01:06:50;;;;;;;14.00;9.40;;;;;;;24.45;54.45;100814.95;107366;1264;72318;-67
2023/08/15 01:09:18;;;;;;;15.80;10.50;;;;;;;24.53;54.37;100814.83;107403;1263;69329;-66
2023/08/15 01:12:15;;;;;;;14.30;10.50;;;;;;;24.49;54.40;100816.98;107407;1264;72634;-67
2023/08/15 01:14:54;;;;;;;11.70;8.50;;;;;;;24.46;54.46;100812.73;107388;1264;60926;-69
2023/08/15 01:17:31;;;;;;;16.20;10.10;;;;;;;24.55;54.26;100806.45;107278;1263;59224;-67
2023/08/15 01:20:00;;;;;;;18.30;11.40;;;;;;;24.54;54.36;100807.98;107253;1264;73984;-68
2023/08/15 01:22:28;;;;;;;19.00;10.50;;;;;;;24.57;54.35;100804.69;107348;1264;70306;-67
2023/08/15 01:24:55;;;;;;;13.20;10.30;;;;;;;24.54;54.36;100807.05;107550;1260;71302;-66
2023/08/15 01:27:23;;;;;;;13.30;10.20;;;;;;;24.57;54.38;100804.70;107750;1260;62019;-68
2023/08/15 01:29:50;;;;;;;16.80;9.50;;;;;;;24.59;54.18;100802.50;108398;1251;58990;-67
2023/08/15 01:32:39;;;;;;;14.30;10.60;;;;;;;24.50;54.38;100802.00;108176;1251;73123;-68
2023/08/15 01:35:16;;;;;;;13.10;8.90;;;;;;;24.46;54.45;100805.39;108242;1251;69458;-66
2023/08/15 01:37:45;;;;;;;17.70;10.40;;;;;;;24.46;54.61;100805.95;108254;1251;74680;-66
2023/08/15 01:40:14;;;;;;;14.70;11.00;;;;;;;24.29;54.99;100806.83;108167;1252;61696;-67
2023/08/15 01:42:42;;;;;;;11.50;9.20;;;;;;;24.22;55.41;100805.45;108300;1251;59713;-68
2023/08/15 01:45:09;;;;;;;14.40;10.80;;;;;;;24.25;55.28;100802.78;108175;1253;71672;-68
2023/08/15 01:47:37;;;;;;;18.50;11.10;;;;;;;24.35;55.01;100804.73;108108;1253;70283;-67
2023/08/15 01:50:06;;;;;;;16.80;10.10;;;;;;;24.26;55.40;100802.76;107927;1254;72651;-67
2023/08/15 01:52:33;;;;;;;16.00;10.90;;;;;;;24.20;55.55;100800.23;108186;1253;60538;-67
2023/08/15 01:55:01;;;;;;;12.00;9.10;;;;;;;24.32;55.28;100801.73;108103;1253;61051;-67
2023/08/15 01:57:28;;;;;;;16.10;10.70;;;;;;;24.44;55.01;100805.71;108141;1257;73019;-69
2023/08/15 01:59:56;;;;;;;16.60;10.80;;;;;;;24.53;54.73;100801.64;108035;1259;70331;-66
2023/08/15 02:02:23;;;;;;;17.30;10.40;;;;;;;24.46;54.92;100803.92;108032;1257;72404;-67
2023/08/15 02:04:51;;;;;;;13.70;9.90;;;;;;;24.47;54.89;100803.33;108109;1254;60535;-66
2023/08/15 02:07:18;;;;;;;14.80;10.10;;;;;;;24.55;54.70;100803.80;108088;1252;59643;-67
2023/08/15 02:09:46;;;;;;;12.20;9.10;;;;;;;24.37;55.19;100807.64;108075;1254;72116;-66
2023/08/15 02:12:15;;;;;;;14.10;10.60;;;;;;;24.20;55.78;100806.90;108074;1253;69147;-66
2023/08/15 02:14:43;;;;;;;14.40;9.90;;;;;;;24.23;55.88;100804.48;108007;1259;71813;-67
2023/08/15 02:17:11;;;;;;;14.00;10.80;;;;;;;24.20;56.04;100805.05;107994;1257;61706;-68
2023/08/15 02:19:38;;;;;;;16.20;11.30;;;;;;;24.28;55.79;100805.65;107998;1253;60178;-66
2023/08/15 02:22:05;;;;;;;13.60;10.00;;;;;;;24.24;55.92;100802.77;108114;1253;71698;-67
2023/08/15 02:24:33;;;;;;;15.70;10.70;;;;;;;24.30;55.81;100809.08;108150;1253;70296;-67
2023/08/15 02:27:00;;;;;;;10.60;9.00;;;;;;;24.19;56.24;100805.87;108124;1254;73189;-67
2023/08/15 02:29:27;;;;;;;13.90;10.90;;;;;;;24.26;56.07;100804.94;108164;1257;60375;-68
2023/08/15 02:31:55;;;;;;;18.40;11.50;;;;;;;24.21;56.03;100804.30;107956;1252;59151;-67
2023/08/15 02:34:24;;;;;;;13.10;10.30;;;;;;;24.17;56.08;100806.44;108243;1253;73099;-67
2023/08/15 02:36:52;;;;;;;18.40;11.30;;;;;;;24.21;55.99;100807.35;108197;1253;68732;-67
2023/08/15 02:39:19;;;;;;;13.00;10.50;;;;;;;24.14;56.35;100808.80;108372;1254;71129;-68
2023/08/15 02:41:47;;;;;;;11.60;9.40;;;;;;;24.04;56.69;100811.38;108251;1254;60452;-67
2023/08/15 02:44:14;;;;;;;15.80;10.80;;;;;;;24.01;56.59;100812.02;108203;1254;59109;-67
2023/08/15 02:46:42;;;;;;;11.60;9.90;;;;;;;23.82;57.20;100813.08;108120;1254;71848;-68
2023/08/15 02:49:09;;;;;;;12.40;10.80;;;;;;;23.73;57.50;100813.98;108147;1254;70328;-67
2023/08/15 02:51:36;;;;;;;14.70;10.90;;;;;;;23.57;57.98;100814.50;108271;1251;72632;-67
2023/08/15 02:54:04;;;;;;;14.00;10.80;;;;;;;23.55;58.25;100816.98;108149;1259;60475;-67
2023/08/15 02:56:32;;;;;;;18.90;12.10;;;;;;;23.48;58.39;100818.27;108120;1251;59966;-67
2023/08/15 02:58:59;;;;;;;16.80;11.00;;;;;;;23.42;58.69;100823.21;108181;1251;72328;-67
2023/08/15 03:01:27;;;;;;;13.00;10.90;;;;;;;23.42;58.91;100823.45;108074;1251;70617;-67
2023/08/15 03:03:54;;;;;;;17.30;12.00;;;;;;;23.34;59.24;100826.44;108165;1251;74944;-67
2023/08/15 03:06:22;;;;;;;19.20;12.00;;;;;;;23.34;59.42;100830.54;108191;1252;61619;-68
2023/08/15 03:08:49;;;;;;;20.80;12.90;;;;;;;23.35;59.42;100837.57;108300;1251;60711;-68
2023/08/15 03:11:17;;;;;;;17.40;11.00;;;;;;;23.39;59.33;100833.16;108117;1251;73502;-67
2023/08/15 03:13:44;;;;;;;12.60;10.10;;;;;;;23.49;59.24;100835.60;108134;1251;69593;-68
2023/08/15 03:16:11;;;;;;;19.20;11.30;;;;;;;23.59;59.07;100836.40;108091;1251;72464;-67
2023/08/15 03:18:39;;;;;;;15.30;11.40;;;;;;;23.75;58.91;100841.97;108188;1251;61631;-68
2023/08/15 03:21:08;;;;;;;14.30;10.80;;;;;;;23.87;58.73;100841.67;108177;1256;60054;-68
2023/08/15 03:23:37;;;;;;;21.20;11.40;;;;;;;23.89;59.30;100843.64;108118;1251;71580;-67
2023/08/15 03:26:05;;;;;;;14.50;10.10;;;;;;;24.29;58.78;100840.03;108096;1256;68966;-68
2023/08/15 03:28:34;;;;;;;14.30;10.30;;;;;;;24.81;57.28;100842.27;108145;1254;71379;-68
2023/08/15 03:31:06;;;;;;;15.40;10.80;;;;;;;25.21;56.40;100839.89;108201;1251;61812;-66
2023/08/15 03:33:36;;;;;;;18.90;10.70;;;;;;;25.62;55.33;100837.41;108226;1251;59168;-67
2023/08/15 03:36:05;;;;;;;15.10;9.70;;;;;;;25.98;54.34;100840.44;108233;1256;73855;-67
2023/08/15 03:38:33;;;;;;;23.80;9.90;;;;;;;26.43;53.14;100843.00;108114;1258;69409;-66
2023/08/15 03:41:04;;;;;;;15.40;8.90;;;;;;;26.73;52.33;100847.13;108196;1251;73233;-67
2023/08/15 03:43:33;;;;;;;16.20;9.00;;;;;;;27.14;51.18;100849.02;108214;1251;61422;-68
2023/08/15 03:46:03;;;;;;;15.30;9.00;;;;;;;27.39;50.39;100847.94;108126;1251;59055;-67
2023/08/15 03:48:33;;;;;;;11.80;8.70;;;;;;;27.72;49.62;100843.98;108170;1251;72954;-68
2023/08/15 03:51:03;;;;;;;16.40;8.80;;;;;;;27.98;48.66;100845.16;108258;1251;69929;-68
2023/08/15 03:53:31;;;;;;;15.30;8.70;;;;;;;28.18;48.34;100846.25;108226;1254;72506;-68
2023/08/15 03:55:58;;;;;;;15.90;8.80;;;;;;;28.43;47.80;100845.27;108188;1253;60553;-68
2023/08/15 03:58:26;;;;;;;41.80;9.60;;;;;;;29.04;46.45;100849.17;107981;1251;59935;-68
2023/08/15 04:00:53;;;;;;;29.40;9.60;;;;;;;29.47;45.46;100848.27;108161;1251;73049;-68
2023/08/15 04:03:21;;;;;;;32.70;9.20;;;;;;;29.72;44.99;100842.70;108075;1251;69917;-67
2023/08/15 04:05:48;;;;;;;19.60;7.80;;;;;;;30.14;44.03;100844.38;108089;1251;74889;-69
2023/08/15 04:08:16;;;;;;;22.60;8.20;;;;;;;30.51;43.29;100842.70;108196;1254;60697;-68
2023/08/15 04:10:45;;;;;;;19.60;7.70;;;;;;;30.81;42.68;100837.91;108203;1251;59681;-68
2023/08/15 04:13:12;;;;;;;21.90;7.80;;;;;;;31.25;41.77;100837.73;108268;1251;71785;-68
2023/08/15 04:15:40;;;;;;;22.80;8.00;;;;;;;31.67;40.83;100835.48;108172;1251;70307;-68
2023/08/15 04:18:08;;;;;;;20.60;7.70;;;;;;;31.90;40.47;100836.11;108248;1251;72317;-68
2023/08/15 04:20:37;;;;;;;15.40;7.60;;;;;;;32.38;39.41;100834.05;108157;1251;59611;-67
2023/08/15 04:23:06;;;;;;;26.80;7.60;;;;;;;32.66;39.12;100837.34;108157;1251;59523;-68
2023/08/15 04:25:34;;;;;;;27.10;8.00;;;;;;;32.94;38.40;100840.14;108125;1251;72980;-68
2023/08/15 04:28:02;;;;;;;13.00;7.60;;;;;;;33.25;37.77;100844.06;108208;1256;61390;-68
2023/08/15 04:30:29;;;;;;;15.30;6.50;;;;;;;33.43;37.50;100841.84;108064;1256;63884;-68
2023/08/15 04:33:00;;;;;;;10.00;6.50;;;;;;;33.61;36.99;100844.30;108203;1251;59174;-69
2023/08/15 04:35:28;;;;;;;15.50;7.10;;;;;;;33.89;36.42;100846.73;108072;1251;60021;-68
2023/08/15 04:37:56;;;;;;;10.50;7.20;;;;;;;34.16;36.10;100843.45;108156;1251;64230;-68
2023/08/15 04:40:37;;;;;;;13.30;6.50;;;;;;;34.52;35.56;100844.02;108211;1251;61489;-69
2023/08/15 04:43:05;;;;;;;15.00;6.80;;;;;;;34.74;35.08;100848.30;108097;1251;62441;-68
2023/08/15 04:45:33;;;;;;;11.50;6.50;;;;;;;35.18;34.82;100845.55;108201;1254;60417;-69
2023/08/15 04:48:00;;;;;;;18.20;6.80;;;;;;;35.31;34.69;100843.79;108221;1251;60404;-68
2023/08/15 04:50:28;;;;;;;14.80;7.00;;;;;;;35.57;34.32;100844.31;108198;1251;65036;-69
2023/08/15 05:53:49;;;;;;;7.20;3.50;;;;;;;41.67;24.03;100847.68;104976;1289;600935;-68
2023/08/15 05:56:18;;;;;;;5.80;4.30;;;;;;;41.70;23.83;100848.22;107260;1263;59255;-70
2023/08/15 05:58:46;;;;;;;9.20;4.20;;;;;;;42.06;23.56;100848.20;107765;1257;59308;-70
2023/08/15 06:01:13;;;;;;;5.30;3.60;;;;;;;42.48;23.08;100845.93;107635;1257;63371;-70
2023/08/15 06:03:41;;;;;;;6.20;3.50;;;;;;;42.51;22.78;100850.65;107770;1256;60531;-70
2023/08/15 06:06:18;;;;;;;8.00;3.70;;;;;;;42.69;22.44;100851.59;107561;1258;279749;-71
2023/08/15 06:08:46;;;;;;;5.30;3.50;;;;;;;42.78;22.13;100852.18;107985;1253;59123;-69
2023/08/15 06:11:15;;;;;;;6.70;3.60;;;;;;;42.62;22.51;100853.09;107975;1259;59080;-69
2023/08/15 06:13:42;;;;;;;5.70;3.70;;;;;;;42.52;22.73;100852.65;107953;1253;62085;-69
2023/08/15 06:16:10;;;;;;;5.00;3.60;;;;;;;42.72;22.77;100855.52;107979;1253;60271;-69
2023/08/15 06:18:40;;;;;;;8.00;3.80;;;;;;;42.84;22.73;100857.00;108017;1253;64223;-70
2023/08/15 06:21:08;;;;;;;9.90;4.00;;;;;;;42.86;22.68;100857.35;107962;1256;59517;-70
2023/08/15 06:24:22;;;;;;;9.20;3.90;;;;;;;43.16;22.46;100855.36;108001;1259;59495;-70
2023/08/15 06:26:50;;;;;;;8.10;3.30;;;;;;;43.35;22.46;100853.98;107806;1256;62799;-68
2023/08/15 06:29:18;;;;;;;6.00;3.70;;;;;;;43.12;21.98;100855.54;107898;1256;60419;-69
2023/08/15 06:31:45;;;;;;;6.10;3.60;;;;;;;42.87;22.29;100853.95;107827;1258;62422;-69
2023/08/15 06:34:13;;;;;;;7.70;3.70;;;;;;;42.98;22.50;100853.16;107827;1256;59417;-69
2023/08/15 06:36:40;;;;;;;6.70;3.60;;;;;;;43.09;22.46;100850.44;107868;1256;59743;-70
2023/08/15 06:39:08;;;;;;;8.60;3.70;;;;;;;43.22;22.27;100852.79;107905;1256;64166;-69
2023/08/15 06:41:35;;;;;;;7.00;3.70;;;;;;;43.39;22.24;100852.80;107713;1256;61377;-69
2023/08/15 06:44:03;;;;;;;11.10;3.50;;;;;;;43.68;21.83;100855.62;107742;1257;72623;-70
2023/08/15 06:46:31;;;;;;;12.00;4.00;;;;;;;43.88;21.54;100852.30;107719;1254;59467;-70
2023/08/15 06:48:58;;;;;;;8.10;3.90;;;;;;;43.70;21.90;100854.48;107846;1257;59430;-70
2023/08/15 06:51:25;;;;;;;9.80;3.80;;;;;;;43.45;22.25;100853.84;107837;1260;64225;-70
2023/08/15 06:53:55;;;;;;;10.20;3.90;;;;;;;43.32;21.95;100853.51;107853;1254;61388;-70
2023/08/15 06:56:22;;;;;;;9.20;4.10;;;;;;;43.19;22.18;100852.46;107845;1254;63895;-70
2023/08/15 06:58:50;;;;;;;7.50;3.90;;;;;;;42.93;22.25;100852.54;107849;1254;59631;-69
2023/08/15 07:01:17;;;;;;;10.30;4.70;;;;;;;42.80;22.23;100854.16;107896;1254;59492;-70
2023/08/15 07:03:45;;;;;;;11.30;4.30;;;;;;;42.96;22.21;100851.85;107901;1255;64102;-70
2023/08/15 07:06:13;;;;;;;11.70;4.30;;;;;;;43.13;22.35;100849.45;107973;1255;61406;-70
2023/08/15 07:08:40;;;;;;;7.00;3.70;;;;;;;43.09;22.09;100851.27;107918;1256;71414;-70
2023/08/15 07:11:08;;;;;;;7.80;3.70;;;;;;;43.23;22.08;100851.91;107923;1256;59212;-69
2023/08/15 07:13:35;;;;;;;13.60;4.40;;;;;;;43.62;21.41;100854.98;107907;1256;59314;-68
2023/08/15 07:16:03;;;;;;;9.40;3.50;;;;;;;43.90;20.96;100850.62;107954;1256;64128;-70
2023/08/15 07:18:30;;;;;;;6.20;3.60;;;;;;;44.14;21.09;100851.80;107891;1256;60459;-69
2023/08/15 07:21:00;;;;;;;7.00;4.00;;;;;;;44.50;20.77;100853.58;107894;1257;62463;-70
2023/08/15 07:23:27;;;;;;;8.60;3.80;;;;;;;44.92;20.23;100854.41;107885;1256;59513;-70
2023/08/15 07:25:57;;;;;;;6.30;3.70;;;;;;;45.21;20.02;100853.15;107948;1254;59561;-70
2023/08/15 07:28:25;;;;;;;13.40;3.90;;;;;;;45.17;19.70;100861.14;107947;1257;63355;-68
2023/08/15 07:30:55;;;;;;;10.60;3.60;;;;;;;45.49;19.68;100859.40;107756;1255;63797;-70
2023/08/15 07:33:22;;;;;;;20.20;4.00;;;;;;;45.72;19.52;100864.11;107839;1255;63749;-70
2023/08/15 07:35:50;;;;;;;9.90;3.60;;;;;;;45.52;19.32;100864.98;107864;1256;59573;-70
2023/08/15 07:38:17;;;;;;;10.00;3.70;;;;;;;45.15;19.43;100863.17;107911;1260;59547;-69
2023/08/15 07:40:47;;;;;;;9.30;3.40;;;;;;;44.87;19.72;100862.98;107887;1255;64116;-70
2023/08/15 07:43:15;;;;;;;10.00;3.60;;;;;;;44.38;20.01;100862.81;108056;1251;61524;-70
2023/08/15 07:45:42;;;;;;;8.50;3.70;;;;;;;44.59;19.89;100861.39;108265;1250;62642;-70
2023/08/15 07:48:10;;;;;;;9.80;4.20;;;;;;;45.09;19.67;100861.23;108319;1256;59187;-69
2023/08/15 07:50:37;;;;;;;8.90;3.70;;;;;;;45.44;19.45;100862.73;108349;1250;59962;-69
2023/08/15 07:53:06;;;;;;;6.50;3.50;;;;;;;45.41;19.21;100863.27;108165;1250;62874;-69
2023/08/15 07:55:33;;;;;;;13.00;3.70;;;;;;;45.27;19.16;100863.17;108185;1250;60447;-68
2023/08/15 07:58:01;;;;;;;10.90;3.40;;;;;;;45.32;19.26;100864.39;108241;1250;65095;-71
2023/08/15 08:00:28;;;;;;;7.40;3.20;;;;;;;45.24;18.87;100865.17;108240;1250;59599;-70
2023/08/15 08:02:56;;;;;;;4.90;3.20;;;;;;;45.10;18.93;100866.48;108229;1250;59462;-68
2023/08/15 08:05:24;;;;;;;5.80;3.40;;;;;;;45.00;19.01;100863.91;108273;1251;62984;-69
2023/08/15 08:07:51;;;;;;;6.20;3.60;;;;;;;44.70;19.48;100856.75;108198;1250;60158;-69
2023/08/15 08:10:18;;;;;;;6.30;3.60;;;;;;;44.85;19.44;100857.37;108225;1250;63791;-69
2023/08/15 08:12:46;;;;;;;10.10;3.60;;;;;;;45.07;19.16;100856.50;108224;1250;59539;-70
2023/08/15 08:15:14;;;;;;;12.00;3.80;;;;;;;45.25;18.91;100854.84;108208;1250;60141;-69
2023/08/15 08:17:41;;;;;;;5.30;3.60;;;;;;;45.30;19.07;100857.15;108221;1250;62804;-69
2023/08/15 08:20:12;;;;;;;7.30;3.30;;;;;;;45.41;18.98;100861.64;108278;1250;60388;-69
2023/08/15 08:22:40;;;;;;;9.20;3.40;;;;;;;45.43;18.78;100859.83;108281;1250;63752;-70
2023/08/15 08:25:21;;;;;;;6.70;3.80;;;;;;;45.28;18.73;100860.47;108249;1253;59205;-68
2023/08/15 08:27:50;;;;;;;8.40;3.80;;;;;;;45.26;18.87;100862.30;108284;1251;58356;-70
2023/08/15 08:30:19;;;;;;;9.80;3.60;;;;;;;45.24;18.85;100864.85;108229;1256;64150;-70
2023/08/15 08:32:46;;;;;;;12.30;3.70;;;;;;;44.97;19.49;100863.17;108243;1250;61424;-70
2023/08/15 08:35:17;;;;;;;7.40;3.60;;;;;;;44.74;19.45;100862.77;108295;1250;63830;-70
2023/08/15 08:37:45;;;;;;;7.40;3.30;;;;;;;44.63;19.47;100859.91;108223;1253;59514;-70
2023/08/15 08:40:13;;;;;;;6.20;3.20;;;;;;;44.78;19.14;100859.81;108259;1250;61089;-70
2023/08/15 08:42:40;;;;;;;4.60;3.20;;;;;;;44.87;18.82;100859.71;108371;1250;64111;-69
2023/08/15 08:45:08;;;;;;;9.20;3.30;;;;;;;44.90;18.16;100857.84;108331;1250;61387;-69
2023/08/15 08:47:40;;;;;;;5.00;3.10;;;;;;;45.22;18.02;100856.65;108236;1250;63753;-69
2023/08/15 08:50:09;;;;;;;9.40;3.10;;;;;;;45.48;17.98;100854.17;108204;1253;59590;-69
2023/08/15 08:52:40;;;;;;;7.30;3.20;;;;;;;45.30;18.10;100852.37;108170;1250;59506;-70
2023/08/15 08:55:09;;;;;;;9.00;2.80;;;;;;;45.38;18.18;100847.90;108218;1250;62883;-69
2023/08/15 08:57:36;;;;;;;8.80;3.20;;;;;;;45.17;18.53;100846.11;108245;1250;60137;-68
2023/08/15 09:00:09;;;;;;;6.40;3.50;;;;;;;44.82;18.75;100849.89;108218;1250;62506;-68
2023/08/15 09:02:37;;;;;;;7.10;3.40;;;;;;;44.68;19.01;100847.34;108240;1253;59566;-69
2023/08/15 09:05:07;;;;;;;5.50;3.10;;;;;;;44.69;18.82;100842.85;108305;1250;59528;-70
2023/08/15 09:07:35;;;;;;;;;;;;;;;44.61;18.97;100844.63;108283;1250;64469;-71
2023/08/15 09:10:04;;;;;;;5.50;3.40;;;;;;;44.32;19.36;100842.93;108275;1250;62474;-69
2023/08/15 09:12:32;;;;;;;8.30;3.50;;;;;;;44.34;19.18;100840.72;108097;1250;62871;-69
2023/08/15 09:15:00;;;;;;;9.70;3.30;;;;;;;44.27;19.47;100834.34;108284;1250;59479;-70
2023/08/15 09:17:28;;;;;;;8.90;3.50;;;;;;;44.20;19.43;100834.27;108249;1250;59316;-70
2023/08/15 09:19:56;;;;;;;7.50;3.60;;;;;;;44.36;19.19;100834.08;108119;1253;64257;-69
2023/08/15 09:22:24;;;;;;;11.30;3.20;;;;;;;44.33;18.86;100836.11;108282;1250;61451;-69
2023/08/15 09:24:52;;;;;;;8.90;4.00;;;;;;;44.27;18.93;100838.66;108238;1253;62553;-70
2023/08/15 09:27:21;;;;;;;7.90;3.30;;;;;;;44.40;18.89;100837.23;108263;1250;58983;-70
2023/08/15 09:29:49;;;;;;;11.00;3.50;;;;;;;44.47;19.07;100829.46;108300;1250;59973;-70
2023/08/15 09:32:17;;;;;;;6.90;3.20;;;;;;;44.48;18.90;100830.41;108298;1250;64100;-70
2023/08/15 09:34:44;;;;;;;7.70;3.30;;;;;;;44.38;19.07;100830.60;108300;1250;60281;-69
2023/08/15 09:37:12;;;;;;;5.70;3.40;;;;;;;44.37;19.04;100833.86;108293;1250;62501;-69
2023/08/15 09:39:39;;;;;;;8.30;3.60;;;;;;;44.09;19.23;100837.10;108321;1250;59238;-69
2023/08/15 09:42:07;;;;;;;12.50;3.60;;;;;;;43.74;19.50;100833.27;108273;1250;59731;-68
2023/08/15 09:44:38;;;;;;;5.30;3.00;;;;;;;43.43;19.73;100831.23;108323;1250;64042;-70
2023/08/15 09:47:07;;;;;;;7.70;3.80;;;;;;;43.32;19.77;100826.83;108270;1256;63788;-67
2023/08/15 09:49:34;;;;;;;7.80;3.30;;;;;;;43.45;19.89;100822.01;108283;1253;62457;-69
2023/08/15 09:52:02;;;;;;;7.30;3.10;;;;;;;43.85;19.62;100819.14;108181;1250;59507;-69
2023/08/15 09:54:30;;;;;;;5.00;2.70;;;;;;;44.31;19.29;100819.65;108172;1250;59512;-69
2023/08/15 09:56:57;;;;;;;6.40;3.30;;;;;;;44.60;18.93;100823.12;108309;1251;64204;-69
2023/08/15 09:59:25;;;;;;;5.60;3.30;;;;;;;44.37;18.90;100820.77;108256;1250;61621;-70
2023/08/15 10:01:52;;;;;;;5.70;3.20;;;;;;;44.33;18.95;100817.23;108320;1257;74803;-69
2023/08/15 10:04:20;;;;;;;8.80;2.90;;;;;;;44.39;18.80;100820.50;108305;1250;59244;-69
2023/08/15 10:06:47;;;;;;;7.30;3.40;;;;;;;44.55;18.96;100822.75;108241;1250;60306;-69
2023/08/15 10:09:15;;;;;;;6.30;2.50;;;;;;;44.74;18.66;100822.66;108220;1250;64871;-68
2023/08/15 10:11:44;;;;;;;10.70;3.30;;;;;;;44.67;18.30;100822.56;108304;1250;61383;-70
2023/08/15 10:14:14;;;;;;;14.60;3.60;;;;;;;44.49;18.72;100817.20;108259;1250;63124;-69
2023/08/15 10:16:41;;;;;;;7.80;2.90;;;;;;;44.19;18.84;100816.93;108280;1250;60376;-69
2023/08/15 10:19:09;;;;;;;12.80;3.90;;;;;;;44.04;18.88;100809.33;108154;1250;60406;-69
2023/08/15 10:21:46;;;;;;;11.30;3.70;;;;;;;43.93;19.11;100809.50;108247;1250;63674;-69
2023/08/15 10:24:13;;;;;;;6.70;3.50;;;;;;;43.86;19.17;100813.44;108283;1256;69738;-68
2023/08/15 10:26:45;;;;;;;7.90;3.10;;;;;;;43.59;19.56;100813.02;108178;1250;63651;-68
2023/08/15 10:29:12;;;;;;;5.90;3.00;;;;;;;43.41;19.94;100810.59;108192;1250;60410;-68
2023/08/15 10:31:41;;;;;;;9.20;3.10;;;;;;;43.52;19.75;100810.66;108287;1250;60254;-69
2023/08/15 10:34:10;;;;;;;6.90;2.80;;;;;;;43.71;19.46;100808.80;108280;1250;64957;-68
2023/08/15 10:36:40;;;;;;;6.50;3.10;;;;;;;43.86;19.14;100802.90;108336;1250;62347;-69
2023/08/15 10:39:08;;;;;;;5.60;3.00;;;;;;;44.22;18.83;100796.53;108161;1250;62439;-69
2023/08/15 10:41:36;;;;;;;5.40;3.20;;;;;;;44.76;18.79;100797.94;108254;1254;60303;-68
2023/08/15 10:44:05;;;;;;;7.40;2.90;;;;;;;45.24;18.59;100801.36;108212;1251;60195;-69
2023/08/15 10:46:33;;;;;;;6.90;2.80;;;;;;;45.28;18.09;100801.98;108241;1250;64966;-69
2023/08/15 10:49:09;;;;;;;4.10;3.00;;;;;;;45.10;18.19;100802.28;108333;1250;60451;-69
2023/08/15 10:51:38;;;;;;;7.00;2.70;;;;;;;44.73;18.32;100799.22;108177;1251;64373;-68
2023/08/15 10:54:15;;;;;;;3.80;2.80;;;;;;;44.46;18.47;100797.29;108273;1250;60409;-69
2023/08/15 10:56:43;;;;;;;12.40;3.00;;;;;;;44.32;18.52;100794.39;108269;1250;60818;-69
2023/08/15 10:59:12;;;;;;;9.30;3.40;;;;;;;44.22;18.82;100790.86;108194;1250;64417;-69
2023/08/15 11:01:41;;;;;;;12.50;3.30;;;;;;;44.46;18.62;100789.91;108251;1250;61354;-69
2023/08/15 11:04:16;;;;;;;7.20;3.00;;;;;;;44.57;18.64;100790.73;108230;1250;63774;-68
2023/08/15 11:06:46;;;;;;;7.00;3.20;;;;;;;44.32;18.67;100792.79;108234;1250;58956;-69
2023/08/15 11:09:14;;;;;;;5.80;3.30;;;;;;;44.32;18.92;100786.30;108280;1250;60483;-69
2023/08/15 11:11:42;;;;;;;4.50;3.10;;;;;;;44.58;18.91;100783.44;108302;1250;64974;-69
2023/08/15 11:14:16;;;;;;;5.40;2.90;;;;;;;45.15;18.41;100778.38;108271;1250;60178;-69
2023/08/15 11:16:48;;;;;;;4.20;2.80;;;;;;;45.71;18.06;100777.59;108321;1253;62570;-69
2023/08/15 11:19:19;;;;;;;6.60;2.90;;;;;;;46.05;17.64;100775.48;108304;1250;60068;-69
2023/08/15 11:21:47;;;;;;;6.10;3.00;;;;;;;46.07;17.64;100773.88;108349;1250;59136;-70
2023/08/15 11:24:14;;;;;;;10.60;2.80;;;;;;;45.78;17.71;100772.50;108298;1250;63692;-69
2023/08/15 11:26:42;;;;;;;7.30;3.20;;;;;;;45.61;17.82;100768.62;108224;1250;61317;-69
2023/08/15 11:29:10;;;;;;;5.80;2.80;;;;;;;45.68;18.01;100771.70;108282;1250;63860;-69
2023/08/15 11:31:38;;;;;;;7.50;3.00;;;;;;;45.54;17.88;100771.20;108280;1253;60436;-69
2023/08/15 11:34:07;;;;;;;5.40;2.90;;;;;;;45.15;18.21;100768.83;108393;1250;59218;-68
2023/08/15 11:36:34;;;;;;;5.70;2.80;;;;;;;45.21;18.52;100762.54;108313;1250;63622;-69
2023/08/15 11:39:02;;;;;;;4.80;2.60;;;;;;;45.48;18.12;100762.29;108264;1250;60417;-70
2023/08/15 11:41:30;;;;;;;9.10;3.20;;;;;;;45.40;18.00;100762.59;108280;1250;63748;-69
2023/08/15 11:44:03;;;;;;;5.30;2.80;;;;;;;45.20;18.40;100763.69;108300;1256;60412;-69
2023/08/15 11:46:34;;;;;;;5.20;3.10;;;;;;;44.92;18.64;100763.95;108333;1250;60318;-70
2023/08/15 11:49:23;;;;;;;9.00;3.00;;;;;;;44.80;18.86;100760.55;108175;1250;65069;-70
2023/08/15 11:51:51;;;;;;;6.20;2.90;;;;;;;44.75;19.06;100757.78;108266;1251;61414;-69
2023/08/15 11:54:25;;;;;;;6.50;3.20;;;;;;;44.81;18.96;100759.27;108173;1251;63816;-69
2023/08/15 11:56:54;;;;;;;4.10;2.80;;;;;;;45.05;18.76;100761.11;108294;1250;60336;-69
2023/08/15 11:59:26;;;;;;;8.90;3.10;;;;;;;45.00;18.94;100756.09;108152;1251;60313;-69
2023/08/15 12:01:56;;;;;;;9.60;3.20;;;;;;;44.58;18.96;100758.55;108136;1250;65461;-69
2023/08/15 12:04:23;;;;;;;5.40;3.20;;;;;;;43.86;19.33;100757.88;108323;1250;61419;-69
2023/08/15 12:06:52;;;;;;;4.00;3.50;;;;;;;43.16;20.03;100755.38;108397;1251;63720;-68
2023/08/15 12:09:20;;;;;;;5.50;3.10;;;;;;;42.56;20.31;100753.31;108167;1256;60321;-70
2023/08/15 12:11:47;;;;;;;6.40;3.20;;;;;;;42.20;20.67;100758.60;108043;1250;59838;-68
2023/08/15 12:14:21;;;;;;;7.60;3.50;;;;;;;42.04;21.20;100759.83;108221;1254;65234;-69
2023/08/15 12:16:48;;;;;;;8.10;3.30;;;;;;;41.76;21.34;100765.39;108249;1250;70290;-69
2023/08/15 12:19:16;;;;;;;6.10;3.30;;;;;;;41.48;21.52;100761.13;108208;1250;62522;-69
2023/08/15 12:21:49;;;;;;;8.10;3.50;;;;;;;41.31;21.57;100759.80;108257;1250;60261;-69